Strona główna
METAR-TAF:

METAR-TAF

Lotnisko :

Port lotniczy Kair

Kair, Egipt

Szerokość geograficzna: 30-08N, Długość geograficzna: 031-24E, wysokość: 64 m

Aktualna obserwacja pogody

Raport powstał 31 minut temu, godzina 11:30 UTC
Wiatr 11 kt od północ
Temperatura 19°C
Wilgotność 49%
Ciśnienie 1022 hPa
Widzialność 10 km lub więcej
Rozproszone chmury na wysokości 2500 ft

METAR: HECA 161130Z 01011KT 9999 SCT025 19/08 Q1022 NOSIG

czas: 14:01 (12:01 UTC)

Prognoza

Raport powstał 1 godzina i 1 minut temu, godzina 11:00 UTC
Prognoza ważna od 16 godzina 12 UTC do 17 godzina 18 UTC
Wiatr 10 kt od północno-północny wschód
Widzialność: 8000 m
Rozproszone chmury na wysokości 2500 ft
Przejściowo
od 17 godzina 00 UTC do 17 godzina 07 UTC
Wiatr 3 kt z kierunków zmiennych
Widzialność: 4000 m
zamglenie
Przejściowo
od 17 godzina 02 UTC do 17 godzina 06 UTC
Widzialność: 2000 m

TAF: HECA 161100Z 1612/1718 03010KT 8000 SCT025 TEMPO 1700/1707 VRB03KT 4000 BR NSC TEMPO 1702/1706 2000

Obserwacja i prognoza pogody dla ponad 4000 lotnisk (raport METAR i TAF).

Dostępne stacje oznaczono żółtymi i czerwonymi punktami na mapie.

Najedź kursorem aby zobaczyć nazwę stacji.

Kliknij aby zobaczyć obserwacje i prognozy pogody.

Aby zmienić mapę: kliknij na zielony przycisk z czarnym krzyżykiem, aby powiększyć; na zielony przycisk z myślnikiem, aby pomniejszyć; na zielone strzałki, aby przejść do map sąsiednich.


METAR-TAF: